Gillette, WY

10:40 PM MDT on August 20, 2014 (GMT -0600)
RAWS ECHETA WY US | Change Station
CLOSE
Current Station
Personal Weather Station
Location: Gillette, WY
Elevation: 4396 ft
Nearby Weather Stations

Elev 4396 ft 44.47 °N, 105.84 °W | Updated 49 minutes ago

Clear
Clear
69 °F
Feels Like 69 °F
N
8
Wind Variable Wind from ENE
Gusts 15.0 mph

Today
High -- | Low -- °F
--% Chance of Precip.
Yesterday
High -- | Low -- °F
Precip. -- in
6:11 AM 7:59 PM
Waning Crescent, 17% visible
Pressure 29.78 in
Visibility 10.0 miles
Clouds Clear
Dew Point 47 °F
Humidity 46%
Rainfall 0.00 in
Snow Depth Not available.
UV 0 out of 12
Pollen 8.70 out of 12
Air Quality Not available.
Flu Activity Not available.
METAR KGCC 210353Z AUTO 00000KT 10SM CLR 16/08 A2991 RMK AO2 SLP084 T01560078

More Conditions Fewer Conditions

Pressure 29.78 in
Visibility 10.0 miles
Clouds Clear
Dew Point 47 °F
Humidity 46%
Rainfall 0.00 in
Snow Depth Not available.
UV 0 out of 12
Pollen 8.70 out of 12
Air Quality Not available.
Flu Activity Not available.
METAR KGCC 210353Z AUTO 00000KT 10SM CLR 16/08 A2991 RMK AO2 SLP084 T01560078

More Conditions Fewer Conditions

10-Day Weather Forecast

Almanac

Astronomy

Aug. 20, 2014 Rise Set
Actual Time 6:11 AM MDT 7:59 PM MDT
Civil Twilight 5:40 AM MDT 8:30 PM MDT
Nautical Twilight 5:02 AM MDT 9:08 PM MDT
Astronomical Twilight 4:20 AM MDT 9:49 PM MDT
Moon 1:49 AM MDT (8/20) 4:51 PM MDT (8/20)
Length of Visible Light 14h 50m
Length of Day
13h 48m
Tomorrow will be 2m 50s shorter.
Waning Crescent, 17% of the Moon is Illuminated
Aug 21
Waning Crescent
Aug 25
New
Sep 2
First Quarter
Sep 8
Full
Sep 15
Last Quarter

Yesterday's Extremes

State Highs State Lows

Community

WunderPhotos

Upload Photos

1,745,856 photos uploaded!

Nearby

Snow Depth

Station Depth Elevation
Casper Mountain 0 in 7850 ft
Reno Hill 0 in 8500 ft
Cold Springs 0 in 9630 ft
Little Warm 0 in 9370 ft
Sand Lake 0 in 10050 ft

Earthquake Activity

City Distance Mag. Time & Date
No recent earthquake activity has been reported nearby.
Minimum magnitude displayed is 2.5.

Coastal Water Temperatures

Place Temperature
No Stations Reporting

Nearby Weather Stations